createdAt,value
2018-07-28T00:00:29.382Z,1000.12
2018-07-28T00:01:29.376Z,1000.17
2018-07-28T00:02:29.435Z,1000.16
2018-07-28T00:03:29.332Z,1000.16
2018-07-28T00:04:29.438Z,1000.19
2018-07-28T00:05:29.324Z,1000.13
2018-07-28T00:06:29.316Z,1000.16
2018-07-28T00:07:29.417Z,1000.17
2018-07-28T00:08:29.281Z,1000.19
2018-07-28T00:09:29.342Z,1000.12
2018-07-28T00:10:29.257Z,1000.09
2018-07-28T00:11:29.280Z,1000.14
2018-07-28T00:12:29.282Z,1000.14
2018-07-28T00:13:29.261Z,1000.14
2018-07-28T00:14:29.356Z,1000.13
2018-07-28T00:15:29.226Z,1000.13
2018-07-28T00:16:29.316Z,1000.12
2018-07-28T00:17:29.324Z,1000.15
2018-07-28T00:18:29.186Z,1000.11
2018-07-28T00:19:29.291Z,1000.10
2018-07-28T00:20:29.265Z,1000.09
2018-07-28T00:21:29.156Z,1000.09
2018-07-28T00:22:29.281Z,1000.05
2018-07-28T00:23:29.141Z,1000.04
2018-07-28T00:24:29.171Z,1000.01
2018-07-28T00:25:29.213Z,1000.02
2018-07-28T00:26:29.092Z,1000.05
2018-07-28T00:27:29.103Z,999.96
2018-07-28T00:28:29.085Z,999.98
2018-07-28T00:29:29.076Z,1000.00
2018-07-28T00:30:29.054Z,999.95
2018-07-28T00:31:29.063Z,999.99
2018-07-28T00:32:29.042Z,999.99
2018-07-28T00:33:29.023Z,999.97
2018-07-28T00:34:29.028Z,999.93
2018-07-28T00:35:28.998Z,999.95
2018-07-28T00:36:28.999Z,999.95
2018-07-28T00:37:29.027Z,999.94
2018-07-28T00:38:28.991Z,999.95
2018-07-28T00:39:29.089Z,999.93
2018-07-28T00:40:29.033Z,999.96
2018-07-28T00:41:28.943Z,999.92
2018-07-28T00:42:28.954Z,999.93
2018-07-28T00:43:29.069Z,999.94
2018-07-28T00:44:28.924Z,999.87
2018-07-28T00:45:28.897Z,999.89
2018-07-28T00:46:28.981Z,999.91
2018-07-28T00:47:28.891Z,999.84
2018-07-28T00:48:28.899Z,999.88
2018-07-28T00:49:28.874Z,999.84
2018-07-28T00:50:28.861Z,999.84
2018-07-28T00:51:28.834Z,999.80
2018-07-28T00:52:28.851Z,999.82
2018-07-28T00:53:28.854Z,999.76
2018-07-28T00:54:28.822Z,999.78
2018-07-28T00:55:28.794Z,999.76
2018-07-28T00:56:28.801Z,999.79
2018-07-28T00:57:28.791Z,999.81
2018-07-28T00:58:28.769Z,999.76
2018-07-28T00:59:28.788Z,999.80
2018-07-28T01:00:28.758Z,999.78
2018-07-28T01:01:29.123Z,999.80
2018-07-28T01:02:28.750Z,999.80
2018-07-28T01:03:28.721Z,999.78
2018-07-28T01:04:28.711Z,999.76
2018-07-28T01:05:28.694Z,999.75
2018-07-28T01:06:28.699Z,999.76
2018-07-28T01:07:28.754Z,999.73
2018-07-28T01:08:28.748Z,999.75
2018-07-28T01:09:28.663Z,999.74
2018-07-28T01:10:28.647Z,999.74
2018-07-28T01:11:28.634Z,999.73
2018-07-28T01:12:28.756Z,999.72
2018-07-28T01:13:28.629Z,999.71
2018-07-28T01:14:28.628Z,999.74
2018-07-28T01:15:28.604Z,999.72
2018-07-28T01:16:28.598Z,999.75
2018-07-28T01:17:28.592Z,999.76
2018-07-28T01:18:28.561Z,999.74
2018-07-28T01:19:28.678Z,999.74
2018-07-28T01:20:28.573Z,999.71
2018-07-28T01:21:30.767Z,999.75
2018-07-28T01:22:28.533Z,999.71
2018-07-28T01:23:28.516Z,999.70
2018-07-28T01:24:28.495Z,999.67
2018-07-28T01:25:28.493Z,999.66
2018-07-28T01:26:28.493Z,999.69
2018-07-28T01:27:28.476Z,999.72
2018-07-28T01:28:28.470Z,999.71
2018-07-28T01:29:28.518Z,999.73
2018-07-28T01:30:28.587Z,999.67
2018-07-28T01:31:28.563Z,999.68
2018-07-28T01:32:28.436Z,999.66
2018-07-28T01:33:28.419Z,999.63
2018-07-28T01:34:28.488Z,999.62
2018-07-28T01:35:28.384Z,999.62
2018-07-28T01:36:28.402Z,999.60
2018-07-28T01:37:28.384Z,999.58
2018-07-28T01:38:28.374Z,999.60
2018-07-28T01:39:28.372Z,999.60
2018-07-28T01:40:28.328Z,999.57
2018-07-28T01:41:28.327Z,999.59
2018-07-28T01:42:28.312Z,999.56
2018-07-28T01:43:28.461Z,999.59
2018-07-28T01:44:28.365Z,999.57
2018-07-28T01:45:28.301Z,999.54
2018-07-28T01:46:28.294Z,999.52
2018-07-28T01:47:28.303Z,999.52
2018-07-28T01:48:28.358Z,999.51
2018-07-28T01:49:28.322Z,999.49
2018-07-28T01:50:28.235Z,999.46
2018-07-28T01:51:28.243Z,999.47
2018-07-28T01:52:28.217Z,999.44
2018-07-28T01:53:28.213Z,999.42
2018-07-28T01:54:28.303Z,999.40
2018-07-28T01:55:28.291Z,999.40
2018-07-28T01:56:28.173Z,999.43
2018-07-28T01:57:28.165Z,999.39
2018-07-28T01:58:28.167Z,999.40
2018-07-28T01:59:28.250Z,999.39
2018-07-28T02:00:28.172Z,999.43
2018-07-28T02:01:28.123Z,999.38
2018-07-28T02:02:28.130Z,999.44
2018-07-28T02:03:28.121Z,999.42
2018-07-28T02:04:28.095Z,999.37
2018-07-28T02:05:28.067Z,999.37
2018-07-28T02:06:28.064Z,999.33
2018-07-28T02:07:28.076Z,999.34
2018-07-28T02:08:28.058Z,999.34
2018-07-28T02:09:28.151Z,999.34
2018-07-28T02:10:28.021Z,999.31
2018-07-28T02:11:28.041Z,999.33
2018-07-28T02:12:28.006Z,999.36
2018-07-28T02:13:28.029Z,999.31
2018-07-28T02:14:28.041Z,999.29
2018-07-28T02:15:27.982Z,999.31
2018-07-28T02:16:27.961Z,999.32
2018-07-28T02:17:27.961Z,999.31
2018-07-28T02:18:28.076Z,999.31
2018-07-28T02:19:27.924Z,999.27
2018-07-28T02:20:27.923Z,999.26
2018-07-28T02:21:28.020Z,999.28
2018-07-28T02:22:28.007Z,999.26
2018-07-28T02:23:27.911Z,999.30
2018-07-28T02:24:27.975Z,999.30
2018-07-28T02:25:27.871Z,999.30
2018-07-28T02:26:27.853Z,999.32
2018-07-28T02:27:27.851Z,999.36
2018-07-28T02:28:27.878Z,999.40
2018-07-28T02:29:27.899Z,999.51
2018-07-28T02:30:27.818Z,999.62
2018-07-28T02:31:27.822Z,999.64
2018-07-28T02:32:27.862Z,999.59
2018-07-28T02:33:27.918Z,999.55
2018-07-28T02:34:27.770Z,999.59
2018-07-28T02:35:27.864Z,999.65
2018-07-28T02:36:27.783Z,999.69
2018-07-28T02:37:27.801Z,999.68
2018-07-28T02:38:27.776Z,999.64
2018-07-28T02:39:27.865Z,999.57
2018-07-28T02:40:28.084Z,999.53
2018-07-28T02:41:27.706Z,999.46
2018-07-28T02:42:27.821Z,999.52
2018-07-28T02:43:27.699Z,999.55
2018-07-28T02:44:27.787Z,999.59
2018-07-28T02:45:27.704Z,999.62
2018-07-28T02:46:27.662Z,999.63
2018-07-28T02:47:27.682Z,999.60
2018-07-28T02:48:27.646Z,999.56
2018-07-28T02:49:27.698Z,999.44
2018-07-28T02:50:27.609Z,999.46
2018-07-28T02:51:27.598Z,999.49
2018-07-28T02:52:27.604Z,999.44
2018-07-28T02:53:27.612Z,999.51
2018-07-28T02:54:27.708Z,999.50
2018-07-28T02:55:27.562Z,999.48
2018-07-28T02:56:27.560Z,999.48
2018-07-28T02:57:27.531Z,999.45
2018-07-28T02:58:27.540Z,999.45
2018-07-28T02:59:27.613Z,999.45
2018-07-28T03:00:27.501Z,999.44
2018-07-28T03:01:27.487Z,999.51
2018-07-28T03:02:27.475Z,999.51
2018-07-28T03:03:27.503Z,999.50
2018-07-28T03:04:27.491Z,999.51
2018-07-28T03:05:27.567Z,999.50
2018-07-28T03:06:27.490Z,999.54
2018-07-28T03:07:27.539Z,999.54
2018-07-28T03:08:27.431Z,999.53
2018-07-28T03:09:27.414Z,999.56
2018-07-28T03:10:27.418Z,999.55
2018-07-28T03:11:27.392Z,999.54
2018-07-28T03:12:27.420Z,999.64
2018-07-28T03:13:27.378Z,999.61
2018-07-28T03:14:27.371Z,999.71
2018-07-28T03:15:27.432Z,999.77
2018-07-28T03:16:27.361Z,999.81
2018-07-28T03:17:27.326Z,999.95
2018-07-28T03:18:27.347Z,999.93
2018-07-28T03:19:27.354Z,999.99
2018-07-28T03:20:27.320Z,1000.07
2018-07-28T03:21:27.301Z,1000.03
2018-07-28T03:22:27.313Z,999.87
2018-07-28T03:23:27.278Z,999.92
2018-07-28T03:24:27.311Z,999.94
2018-07-28T03:25:27.247Z,999.97
2018-07-28T03:26:27.237Z,999.91
2018-07-28T03:27:27.583Z,1000.01
2018-07-28T03:28:27.353Z,999.94
2018-07-28T03:29:27.206Z,999.92
2018-07-28T03:30:27.787Z,999.89
2018-07-28T03:31:27.342Z,999.80
2018-07-28T03:32:27.193Z,999.80
2018-07-28T03:33:27.162Z,999.85
2018-07-28T03:34:27.189Z,999.96
2018-07-28T03:35:27.132Z,1000.03
2018-07-28T03:36:27.146Z,1000.03
2018-07-28T03:37:27.131Z,999.96
2018-07-28T03:38:27.106Z,999.86
2018-07-28T03:39:27.165Z,999.76
2018-07-28T03:40:27.098Z,999.74
2018-07-28T03:41:27.089Z,999.86
2018-07-28T03:42:27.117Z,999.93
2018-07-28T03:43:27.051Z,1000.03
2018-07-28T03:44:27.075Z,1000.04
2018-07-28T03:45:27.057Z,999.98
2018-07-28T03:46:27.028Z,999.86
2018-07-28T03:47:27.021Z,999.72
2018-07-28T03:48:26.995Z,999.77
2018-07-28T03:49:26.997Z,999.85
2018-07-28T03:50:27.303Z,999.87
2018-07-28T03:51:26.982Z,999.87
2018-07-28T03:52:27.100Z,999.82
2018-07-28T03:53:26.954Z,999.82
2018-07-28T03:54:26.963Z,999.76
2018-07-28T03:55:27.060Z,999.71
2018-07-28T03:56:27.079Z,999.77
2018-07-28T03:57:27.032Z,999.82
2018-07-28T03:58:26.958Z,999.83
2018-07-28T03:59:27.024Z,999.88
2018-07-28T04:00:27.056Z,999.91
2018-07-28T04:01:27.013Z,999.87
2018-07-28T04:02:26.893Z,999.85
2018-07-28T04:03:26.854Z,999.81
2018-07-28T04:04:26.953Z,999.84
2018-07-28T04:05:26.836Z,999.83
2018-07-28T04:06:26.934Z,999.94
2018-07-28T04:07:26.803Z,999.88
2018-07-28T04:08:26.787Z,999.93
2018-07-28T04:09:26.807Z,999.92
2018-07-28T04:10:27.469Z,999.94
2018-07-28T04:11:26.752Z,999.88
2018-07-28T04:12:26.773Z,999.90
2018-07-28T04:13:26.730Z,999.90
2018-07-28T04:14:26.836Z,999.98
2018-07-28T04:15:26.914Z,999.97
2018-07-28T04:16:26.786Z,999.90
2018-07-28T04:17:26.709Z,999.89
2018-07-28T04:18:26.693Z,999.85
2018-07-28T04:19:26.704Z,999.95
2018-07-28T04:20:26.669Z,999.89
2018-07-28T04:21:26.652Z,999.84
2018-07-28T04:22:26.653Z,999.76
2018-07-28T04:23:26.767Z,999.74
2018-07-28T04:24:26.629Z,999.78
2018-07-28T04:25:26.613Z,999.73
2018-07-28T04:26:26.626Z,999.74
2018-07-28T04:27:26.670Z,999.73
2018-07-28T04:28:26.657Z,999.73
2018-07-28T04:29:26.605Z,999.71
2018-07-28T04:30:26.580Z,999.65
2018-07-28T04:31:26.542Z,999.63
2018-07-28T04:32:27.175Z,999.58
2018-07-28T04:33:26.541Z,999.60
2018-07-28T04:34:26.552Z,999.61
2018-07-28T04:35:26.531Z,999.57
2018-07-28T04:36:26.506Z,999.60
2018-07-28T04:37:26.492Z,999.58
2018-07-28T04:38:26.488Z,999.59
2018-07-28T04:39:26.491Z,999.52
2018-07-28T04:40:26.471Z,999.48
2018-07-28T04:41:26.440Z,999.40
2018-07-28T04:42:26.433Z,999.34
2018-07-28T04:43:26.459Z,999.30
2018-07-28T04:44:26.428Z,999.28
2018-07-28T04:45:26.429Z,999.31
2018-07-28T04:46:26.410Z,999.33
2018-07-28T04:47:26.458Z,999.30
2018-07-28T04:48:26.387Z,999.32
2018-07-28T04:49:26.520Z,999.29
2018-07-28T04:50:26.360Z,999.28
2018-07-28T04:51:26.364Z,999.32
2018-07-28T04:52:26.335Z,999.29
2018-07-28T04:53:26.341Z,999.28
2018-07-28T04:54:26.358Z,999.27
2018-07-28T04:55:26.353Z,999.25
2018-07-28T04:56:26.297Z,999.22
2018-07-28T04:57:26.286Z,999.21
2018-07-28T04:58:26.281Z,999.19
2018-07-28T04:59:26.278Z,999.15
2018-07-28T05:00:26.245Z,999.11
2018-07-28T05:01:26.297Z,999.07
2018-07-28T05:02:26.241Z,999.03
2018-07-28T05:03:26.253Z,999.00
2018-07-28T05:04:26.242Z,998.93
2018-07-28T05:05:26.221Z,998.88
2018-07-28T05:06:26.188Z,998.90
2018-07-28T05:07:26.250Z,998.89
2018-07-28T05:08:26.160Z,998.91
2018-07-28T05:09:26.165Z,998.89
2018-07-28T05:10:26.167Z,998.94
2018-07-28T05:11:26.158Z,998.97
2018-07-28T05:12:26.120Z,999.01
2018-07-28T05:13:26.122Z,999.03
2018-07-28T05:14:26.115Z,999.11
2018-07-28T05:15:26.180Z,999.11
2018-07-28T05:16:26.089Z,999.21
2018-07-28T05:17:26.204Z,999.21
2018-07-28T05:18:26.075Z,999.27
2018-07-28T05:19:26.198Z,999.31
2018-07-28T05:20:26.052Z,999.38
2018-07-28T05:21:26.044Z,999.47
2018-07-28T05:22:26.021Z,999.53
2018-07-28T05:23:26.016Z,999.55
2018-07-28T05:24:26.064Z,999.51
2018-07-28T05:25:26.010Z,999.48
2018-07-28T05:26:25.983Z,999.42
2018-07-28T05:27:25.961Z,999.42
2018-07-28T05:28:25.982Z,999.33
2018-07-28T05:29:25.956Z,999.35
2018-07-28T05:30:26.080Z,999.26
2018-07-28T05:31:25.938Z,999.29
2018-07-28T05:32:25.940Z,999.31
2018-07-28T05:33:25.900Z,999.40
2018-07-28T05:34:25.902Z,999.41
2018-07-28T05:35:25.910Z,999.39
2018-07-28T05:36:25.899Z,999.36
2018-07-28T05:37:25.949Z,999.33
2018-07-28T05:38:25.860Z,999.25
2018-07-28T05:39:25.857Z,999.23
2018-07-28T05:40:25.978Z,999.18
2018-07-28T05:41:25.985Z,999.21
2018-07-28T05:42:25.868Z,999.30
2018-07-28T05:43:25.798Z,999.39
2018-07-28T05:44:25.811Z,999.43
2018-07-28T05:45:25.785Z,999.42
2018-07-28T05:46:25.819Z,999.31
2018-07-28T05:47:25.866Z,999.21
2018-07-28T05:48:25.763Z,999.19
2018-07-28T05:49:25.755Z,999.18
2018-07-28T05:50:25.735Z,999.20
2018-07-28T05:51:25.714Z,999.20
2018-07-28T05:52:25.714Z,999.27
2018-07-28T05:53:25.700Z,999.30
2018-07-28T05:54:25.690Z,999.35
2018-07-28T05:55:25.689Z,999.40
2018-07-28T05:56:25.734Z,999.42
2018-07-28T05:57:25.702Z,999.44
2018-07-28T05:58:25.658Z,999.45
2018-07-28T05:59:25.782Z,999.49
2018-07-28T06:00:25.694Z,999.54
2018-07-28T06:01:25.603Z,999.57
2018-07-28T06:02:25.720Z,999.57
2018-07-28T06:03:25.704Z,999.56
2018-07-28T06:04:25.578Z,999.53
2018-07-28T06:05:25.577Z,999.59
2018-07-28T06:06:25.569Z,999.68
2018-07-28T06:07:25.564Z,999.75
2018-07-28T06:08:25.647Z,999.83
2018-07-28T06:09:25.566Z,1000.00
2018-07-28T06:10:25.535Z,1000.02
2018-07-28T06:11:25.617Z,1000.02
2018-07-28T06:12:25.506Z,1000.06
2018-07-28T06:13:25.483Z,999.99
2018-07-28T06:14:25.472Z,999.96
2018-07-28T06:15:25.479Z,999.96
2018-07-28T06:16:25.467Z,999.99
2018-07-28T06:17:25.466Z,1000.00
2018-07-28T06:18:25.443Z,1000.06
2018-07-28T06:19:25.419Z,1000.07
2018-07-28T06:20:25.619Z,1000.07
2018-07-28T06:21:25.500Z,1000.02
2018-07-28T06:22:25.396Z,999.99
2018-07-28T06:23:25.385Z,1000.02
2018-07-28T06:24:25.400Z,1000.05
2018-07-28T06:25:25.444Z,1000.16
2018-07-28T06:26:25.348Z,1000.17
2018-07-28T06:27:25.342Z,1000.20
2018-07-28T06:28:25.442Z,1000.17
2018-07-28T06:29:25.332Z,1000.13
2018-07-28T06:30:25.329Z,1000.20
2018-07-28T06:31:25.314Z,1000.21
2018-07-28T06:32:25.291Z,1000.26
2018-07-28T06:33:25.284Z,1000.27
2018-07-28T06:34:25.280Z,1000.24
2018-07-28T06:35:25.399Z,1000.24
2018-07-28T06:36:25.283Z,1000.25
2018-07-28T06:37:25.234Z,1000.28
2018-07-28T06:38:25.218Z,1000.29
2018-07-28T06:39:25.245Z,1000.29
2018-07-28T06:40:25.214Z,1000.27
2018-07-28T06:41:25.218Z,1000.29
2018-07-28T06:42:25.200Z,1000.22
2018-07-28T06:43:25.185Z,1000.20
2018-07-28T06:44:26.922Z,1000.18
2018-07-28T06:45:25.226Z,1000.11
2018-07-28T06:46:25.175Z,1000.14
2018-07-28T06:47:25.263Z,1000.10
2018-07-28T06:48:25.126Z,1000.11
2018-07-28T06:49:25.131Z,1000.11
2018-07-28T06:50:25.099Z,1000.17
2018-07-28T06:51:25.085Z,1000.15
2018-07-28T06:52:25.071Z,1000.15
2018-07-28T06:53:25.069Z,1000.20
2018-07-28T06:54:25.111Z,1000.21
2018-07-28T06:55:25.175Z,1000.24
2018-07-28T06:56:25.051Z,1000.23
2018-07-28T06:57:25.739Z,1000.23
2018-07-28T06:58:25.038Z,1000.24
2018-07-28T06:59:25.009Z,1000.30
2018-07-28T07:00:24.991Z,1000.29
2018-07-28T07:01:25.013Z,1000.32
2018-07-28T07:02:25.044Z,1000.33
2018-07-28T07:03:24.972Z,1000.34
2018-07-28T07:04:24.960Z,1000.31
2018-07-28T07:05:25.028Z,1000.32
2018-07-28T07:06:24.993Z,1000.37
2018-07-28T07:07:25.009Z,1000.34
2018-07-28T07:08:25.037Z,1000.36
2018-07-28T07:09:24.902Z,1000.37
2018-07-28T07:10:24.886Z,1000.39
2018-07-28T07:11:24.893Z,1000.44
2018-07-28T07:12:24.957Z,1000.44
2018-07-28T07:13:24.875Z,1000.48
2018-07-28T07:14:24.841Z,1000.53
2018-07-28T07:15:24.848Z,1000.55
2018-07-28T07:16:24.953Z,1000.56
2018-07-28T07:17:24.841Z,1000.58
2018-07-28T07:18:24.826Z,1000.66
2018-07-28T07:19:24.814Z,1000.61
2018-07-28T07:20:24.785Z,1000.71
2018-07-28T07:21:24.798Z,1000.79
2018-07-28T07:22:24.764Z,1000.78
2018-07-28T07:23:24.864Z,1000.81
2018-07-28T07:24:24.741Z,1000.84
2018-07-28T07:25:24.743Z,1000.82
2018-07-28T07:26:24.869Z,1000.83
2018-07-28T07:27:24.710Z,1000.88
2018-07-28T07:28:24.695Z,1000.84
2018-07-28T07:29:24.808Z,1000.86
2018-07-28T07:30:24.761Z,1000.82
2018-07-28T07:31:24.707Z,1000.83
2018-07-28T07:32:24.788Z,1000.81
2018-07-28T07:33:24.799Z,1000.82
2018-07-28T07:34:24.750Z,1000.82
2018-07-28T07:35:24.710Z,1000.82
2018-07-28T07:36:24.611Z,1000.82
2018-07-28T07:37:24.719Z,1000.79
2018-07-28T07:38:24.589Z,1000.76
2018-07-28T07:39:24.696Z,1000.75
2018-07-28T07:40:24.567Z,1000.72
2018-07-28T07:41:24.648Z,1000.70
2018-07-28T07:42:24.552Z,1000.66
2018-07-28T07:43:24.553Z,1000.64
2018-07-28T07:44:24.631Z,1000.65
2018-07-28T07:45:24.584Z,1000.66
2018-07-28T07:46:24.548Z,1000.69
2018-07-28T07:47:24.610Z,1000.62
2018-07-28T07:48:24.511Z,1000.62
2018-07-28T07:49:24.503Z,1000.65
2018-07-28T07:50:24.574Z,1000.62
2018-07-28T07:51:24.464Z,1000.60
2018-07-28T07:52:24.451Z,1000.56
2018-07-28T07:53:24.532Z,1000.52
2018-07-28T07:54:24.461Z,1000.50
2018-07-28T07:55:24.561Z,1000.52
2018-07-28T07:56:24.459Z,1000.55
2018-07-28T07:57:24.409Z,1000.57
2018-07-28T07:58:24.487Z,1000.57
2018-07-28T07:59:24.366Z,1000.57
2018-07-28T08:00:24.369Z,1000.53
2018-07-28T08:01:24.353Z,1000.56
2018-07-28T08:02:24.471Z,1000.60
2018-07-28T08:03:24.347Z,1000.62
2018-07-28T08:04:24.327Z,1000.62
2018-07-28T08:05:24.352Z,1000.62
2018-07-28T08:06:24.345Z,1000.64
2018-07-28T08:07:24.449Z,1000.68
2018-07-28T08:08:24.276Z,1000.70
2018-07-28T08:09:24.407Z,1000.68
2018-07-28T08:10:24.361Z,1000.71
2018-07-28T08:11:24.256Z,1000.68
2018-07-28T08:12:24.248Z,1000.68
2018-07-28T08:13:24.230Z,1000.72
2018-07-28T08:14:24.337Z,1000.72
2018-07-28T08:15:24.323Z,1000.77
2018-07-28T08:16:24.308Z,1000.78
2018-07-28T08:17:24.346Z,1000.80
2018-07-28T08:18:24.187Z,1000.87
2018-07-28T08:19:24.289Z,1000.87
2018-07-28T08:20:24.149Z,1000.87
2018-07-28T08:21:24.185Z,1000.85
2018-07-28T08:22:24.258Z,1000.84
2018-07-28T08:23:24.240Z,1000.88
2018-07-28T08:24:24.117Z,1000.82
2018-07-28T08:25:24.132Z,1000.81
2018-07-28T08:26:24.089Z,1000.80
2018-07-28T08:27:24.138Z,1000.82
2018-07-28T08:28:24.090Z,1000.81
2018-07-28T08:29:24.228Z,1000.80
2018-07-28T08:30:24.072Z,1000.77
2018-07-28T08:31:25.722Z,1000.77
2018-07-28T08:32:24.076Z,1000.77
2018-07-28T08:33:24.066Z,1000.80
2018-07-28T08:34:24.125Z,1000.75
2018-07-28T08:35:24.104Z,1000.71
2018-07-28T08:36:24.056Z,1000.75
2018-07-28T08:37:23.964Z,1000.67
2018-07-28T08:38:24.016Z,1000.73
2018-07-28T08:39:24.094Z,1000.70
2018-07-28T08:40:23.937Z,1000.72
2018-07-28T08:41:23.941Z,1000.76
2018-07-28T08:42:23.924Z,1000.74
2018-07-28T08:43:24.051Z,1000.81
2018-07-28T08:44:23.949Z,1000.81
2018-07-28T08:45:23.894Z,1000.88
2018-07-28T08:46:23.874Z,1000.92
2018-07-28T08:47:23.865Z,1000.96
2018-07-28T08:48:23.877Z,1000.94
2018-07-28T08:49:24.005Z,1000.99
2018-07-28T08:50:23.832Z,1001.02
2018-07-28T08:51:23.839Z,1001.08
2018-07-28T08:52:23.827Z,1001.11
2018-07-28T08:53:23.841Z,1001.16
2018-07-28T08:54:23.860Z,1001.19
2018-07-28T08:55:23.916Z,1001.20
2018-07-28T08:56:23.801Z,1001.20
2018-07-28T08:57:23.807Z,1001.20
2018-07-28T08:58:23.767Z,1001.18
2018-07-28T08:59:23.760Z,1001.25
2018-07-28T09:00:23.732Z,1001.23
2018-07-28T09:01:23.895Z,1001.15
2018-07-28T09:02:23.712Z,1001.15
2018-07-28T09:03:23.733Z,1001.15
2018-07-28T09:04:23.701Z,1001.14
2018-07-28T09:05:23.812Z,1001.11
2018-07-28T09:06:23.716Z,1001.12
2018-07-28T09:07:23.660Z,1001.09
2018-07-28T09:08:23.683Z,1001.10
2018-07-28T09:09:23.647Z,1001.09
2018-07-28T09:10:23.640Z,1001.11
2018-07-28T09:11:23.679Z,1001.08
2018-07-28T09:12:23.674Z,1001.06
2018-07-28T09:13:23.621Z,1001.07
2018-07-28T09:14:23.645Z,1001.04
2018-07-28T09:15:23.705Z,1001.06
2018-07-28T09:16:23.704Z,1001.01
2018-07-28T09:17:23.567Z,1001.01
2018-07-28T09:18:23.556Z,1000.96
2018-07-28T09:19:23.572Z,1000.98
2018-07-28T09:20:23.535Z,1000.98
2018-07-28T09:21:23.535Z,1001.00
2018-07-28T09:22:23.514Z,1001.00
2018-07-28T09:23:23.556Z,1000.99
2018-07-28T09:24:23.501Z,1000.99
2018-07-28T09:25:23.613Z,1000.97
2018-07-28T09:26:23.462Z,1000.94
2018-07-28T09:27:23.586Z,1001.00
2018-07-28T09:28:23.454Z,1001.00
2018-07-28T09:29:23.565Z,1000.99
2018-07-28T09:30:23.433Z,1000.98
2018-07-28T09:31:23.502Z,1000.97
2018-07-28T09:32:23.395Z,1000.89
2018-07-28T09:33:23.416Z,1000.86
2018-07-28T09:34:23.410Z,1000.89
2018-07-28T09:35:23.378Z,1000.90
2018-07-28T09:36:23.389Z,1000.89
2018-07-28T09:37:23.358Z,1000.87
2018-07-28T09:38:23.335Z,1000.92
2018-07-28T09:39:23.349Z,1000.92
2018-07-28T09:40:23.319Z,1000.95
2018-07-28T09:41:23.390Z,1000.99
2018-07-28T09:42:23.433Z,1001.04
2018-07-28T09:43:23.291Z,1001.10
2018-07-28T09:44:23.313Z,1001.09
2018-07-28T09:45:23.264Z,1001.07
2018-07-28T09:46:23.311Z,1001.08
2018-07-28T09:47:23.365Z,1001.07
2018-07-28T09:48:23.247Z,1001.09
2018-07-28T09:49:23.270Z,1001.02
2018-07-28T09:50:23.310Z,1000.97
2018-07-28T09:51:23.222Z,1000.95
2018-07-28T09:52:23.205Z,1001.01
2018-07-28T09:53:23.260Z,1000.97
2018-07-28T09:54:23.191Z,1000.95
2018-07-28T09:55:23.315Z,1000.93
2018-07-28T09:56:23.155Z,1000.94
2018-07-28T09:57:23.144Z,1000.94
2018-07-28T09:58:23.131Z,1000.97
2018-07-28T09:59:23.157Z,1000.96
2018-07-28T10:00:23.211Z,1000.95
2018-07-28T10:01:23.118Z,1000.91
2018-07-28T10:02:23.087Z,1000.92
2018-07-28T10:03:23.088Z,1000.89
2018-07-28T10:04:23.082Z,1000.89
2018-07-28T10:05:23.209Z,1000.87
2018-07-28T10:06:23.081Z,1000.89
2018-07-28T10:07:23.063Z,1000.86
2018-07-28T10:08:23.021Z,1000.83
2018-07-28T10:09:23.104Z,1000.90
2018-07-28T10:10:23.110Z,1000.94
2018-07-28T10:11:23.037Z,1000.89
2018-07-28T10:12:23.019Z,1000.91
2018-07-28T10:13:22.982Z,1000.94
2018-07-28T10:14:22.972Z,1000.91
2018-07-28T10:15:22.964Z,1000.92
2018-07-28T10:16:22.969Z,1000.93
2018-07-28T10:17:23.050Z,1000.90
2018-07-28T10:18:22.919Z,1000.97
2018-07-28T10:19:22.932Z,1000.90
2018-07-28T10:20:22.971Z,1000.91
2018-07-28T10:21:22.890Z,1000.87
2018-07-28T10:22:22.957Z,1000.90
2018-07-28T10:23:22.888Z,1000.93
2018-07-28T10:24:22.988Z,1000.90
2018-07-28T10:25:22.974Z,1000.90
2018-07-28T10:26:22.848Z,1000.87
2018-07-28T10:27:22.944Z,1000.88
2018-07-28T10:28:22.812Z,1000.85
2018-07-28T10:29:22.893Z,1000.85
2018-07-28T10:30:22.872Z,1000.84
2018-07-28T10:31:22.929Z,1000.81
2018-07-28T10:32:22.813Z,1000.80
2018-07-28T10:33:22.768Z,1000.78
2018-07-28T10:34:22.791Z,1000.77
2018-07-28T10:35:22.830Z,1000.76
2018-07-28T10:36:22.861Z,1000.72
2018-07-28T10:37:22.858Z,1000.74
2018-07-28T10:38:22.857Z,1000.70
2018-07-28T10:39:22.831Z,1000.67
2018-07-28T10:40:22.703Z,1000.67
2018-07-28T10:41:22.684Z,1000.67
2018-07-28T10:42:22.713Z,1000.67
2018-07-28T10:43:22.675Z,1000.65
2018-07-28T10:44:22.807Z,1000.66
2018-07-28T10:45:22.721Z,1000.67
2018-07-28T10:46:22.635Z,1000.63
2018-07-28T10:47:22.741Z,1000.64
2018-07-28T10:48:22.617Z,1000.62
2018-07-28T10:49:22.790Z,1000.64
2018-07-28T10:50:22.608Z,1000.65
2018-07-28T10:51:22.605Z,1000.66
2018-07-28T10:52:22.583Z,1000.68
2018-07-28T10:53:22.725Z,1000.67
2018-07-28T10:54:22.707Z,1000.68
2018-07-28T10:55:22.555Z,1000.68
2018-07-28T10:56:22.542Z,1000.71
2018-07-28T10:57:22.520Z,1000.69
2018-07-28T10:58:23.302Z,1000.66
2018-07-28T10:59:22.528Z,1000.66
2018-07-28T11:00:22.657Z,1000.64
2018-07-28T11:01:22.597Z,1000.67
2018-07-28T11:02:22.589Z,1000.65
2018-07-28T11:03:22.454Z,1000.62
2018-07-28T11:04:22.461Z,1000.63
2018-07-28T11:05:22.593Z,1000.51
2018-07-28T11:06:22.451Z,1000.52
2018-07-28T11:07:22.525Z,1000.53
2018-07-28T11:08:22.415Z,1000.50
2018-07-28T11:09:22.541Z,1000.52
2018-07-28T11:10:22.398Z,1000.47
2018-07-28T11:11:22.372Z,1000.51
2018-07-28T11:12:22.377Z,1000.43
2018-07-28T11:13:22.873Z,1000.44
2018-07-28T11:14:22.449Z,1000.47
2018-07-28T11:15:22.355Z,1000.48
2018-07-28T11:16:22.318Z,1000.50
2018-07-28T11:17:22.331Z,1000.55
2018-07-28T11:18:22.335Z,1000.54
2018-07-28T11:19:22.350Z,1000.56
2018-07-28T11:20:22.296Z,1000.59
2018-07-28T11:21:22.277Z,1000.59
2018-07-28T11:22:22.260Z,1000.58
2018-07-28T11:23:22.268Z,1000.59
2018-07-28T11:24:22.267Z,1000.65
2018-07-28T11:25:22.248Z,1000.71
2018-07-28T11:26:22.260Z,1000.73
2018-07-28T11:27:22.206Z,1000.78
2018-07-28T11:28:22.198Z,1000.80
2018-07-28T11:29:22.203Z,1000.77
2018-07-28T11:30:22.220Z,1000.71
2018-07-28T11:31:22.170Z,1000.66
2018-07-28T11:32:22.165Z,1000.72
2018-07-28T11:33:22.160Z,1000.75
2018-07-28T11:34:22.148Z,1000.80
2018-07-28T11:35:22.137Z,1000.87
2018-07-28T11:36:22.246Z,1000.92
2018-07-28T11:37:22.107Z,1000.99
2018-07-28T11:38:22.109Z,1001.02
2018-07-28T11:39:22.126Z,1001.01
2018-07-28T11:40:22.103Z,1000.99
2018-07-28T11:41:22.132Z,1001.00
2018-07-28T11:42:22.130Z,1001.00
2018-07-28T11:43:22.048Z,1000.97
2018-07-28T11:44:22.033Z,1000.95
2018-07-28T11:45:22.100Z,1000.93
2018-07-28T11:46:22.109Z,1000.86
2018-07-28T11:47:22.021Z,1000.87
2018-07-28T11:48:22.129Z,1000.82
2018-07-28T11:49:22.000Z,1000.83
2018-07-28T11:50:21.987Z,1000.84
2018-07-28T11:51:22.122Z,1000.84
2018-07-28T11:52:22.011Z,1000.77
2018-07-28T11:53:21.971Z,1000.79
2018-07-28T11:54:22.068Z,1000.78
2018-07-28T11:55:21.940Z,1000.83
2018-07-28T11:56:22.040Z,1000.85
2018-07-28T11:57:21.947Z,1000.84
2018-07-28T11:58:22.047Z,1000.90
2018-07-28T11:59:21.890Z,1000.92
2018-07-28T12:00:21.880Z,1000.90
2018-07-28T12:01:21.873Z,1000.95
2018-07-28T12:02:21.862Z,1000.98
2018-07-28T12:03:22.027Z,1000.99
2018-07-28T12:04:21.886Z,1001.00
2018-07-28T12:05:21.997Z,1001.00
2018-07-28T12:06:21.810Z,1001.00
2018-07-28T12:07:21.931Z,1000.99
2018-07-28T12:08:21.793Z,1000.95
2018-07-28T12:09:21.905Z,1000.92
2018-07-28T12:10:21.782Z,1000.97
2018-07-28T12:11:21.781Z,1000.91
2018-07-28T12:12:21.755Z,1000.91
2018-07-28T12:13:21.845Z,1000.92
2018-07-28T12:14:21.718Z,1000.97
2018-07-28T12:15:21.834Z,1000.95
2018-07-28T12:16:21.715Z,1001.01